Stottfjord — LMCE — position and weather

sailwx.info

Track history (hours):
 
Tides and Currents Weather Stations Pressure Air Temp Water Temp Dewpoint Dewpoint Depression Visibility Wind Speed Wind Dir Waves Ship Positions

Stottfjord

Last reported at 2017-Jan-17 20:31 UTC. Time now 2017-Jan-17 23:34 UTC.
Position N 66°38' E 012°34'.

Length 28 m; draft 5.3 m.

Type: Fishing. MMSI: 257580600.

Date/timePositionNaut miles runAvg speedWind from/ knotsBaromVisibWave heightAir tempDewpointWater temp
2017-Jan-17 20:31N 66°38' E 012°34'8 8.7
2017-Jan-17 19:34N 66°34' E 012°15'5 5.1
2017-Jan-17 18:34N 66°30' E 012°06'0 0.0
2017-Jan-17 17:34N 66°30' E 012°06'0 0.0
2017-Jan-17 16:34N 66°30' E 012°06'0 0.0
2017-Jan-17 15:33N 66°30' E 012°06'0 0.0
2017-Jan-17 14:34N 66°30' E 012°06'0 0.0
2017-Jan-17 13:34N 66°30' E 012°06'0 0.0
2017-Jan-17 12:34N 66°30' E 012°06'0 0.0
2017-Jan-17 11:34N 66°30' E 012°06'0 0.0
2017-Jan-17 10:34N 66°30' E 012°06'0 0.0
2017-Jan-17 09:34N 66°30' E 012°06'0 0.0
2017-Jan-17 08:34N 66°30' E 012°06'0 0.0
2017-Jan-17 07:33N 66°30' E 012°06'0 0.0
2017-Jan-17 06:34N 66°30' E 012°06'0 0.0
2017-Jan-17 05:34N 66°30' E 012°06'0 0.0
2017-Jan-17 04:34N 66°30' E 012°06'0 0.0
2017-Jan-17 03:34N 66°30' E 012°06'0 0.0
2017-Jan-17 02:34N 66°30' E 012°06'0 0.0
2017-Jan-17 01:34N 66°30' E 012°06'0 0.0
2017-Jan-17 00:34N 66°30' E 012°06'0 0.0
2017-Jan-16 23:34N 66°30' E 012°06'0 0.0
2017-Jan-16 22:34N 66°30' E 012°06'0 0.0
2017-Jan-16 21:33N 66°30' E 012°06'0 0.0
2017-Jan-16 20:34N 66°30' E 012°06'0 0.0
2017-Jan-16 19:34N 66°30' E 012°06'0 0.0
2017-Jan-16 18:34N 66°30' E 012°06'0 0.0
2017-Jan-16 17:34N 66°30' E 012°06'0 0.0
2017-Jan-16 16:34N 66°30' E 012°06'0 0.0
2017-Jan-16 15:34N 66°30' E 012°06'0 0.0
2017-Jan-16 14:34N 66°30' E 012°06'0 0.0
2017-Jan-16 13:34N 66°30' E 012°06'0 0.0
2017-Jan-16 12:34N 66°30' E 012°06'0 0.0
2017-Jan-16 11:34N 66°30' E 012°06'0 0.0
2017-Jan-16 10:33N 66°30' E 012°06'0 0.0
2017-Jan-16 09:34N 66°30' E 012°06'0 0.0
2017-Jan-16 08:34N 66°30' E 012°06'0 0.0
2017-Jan-16 07:34N 66°30' E 012°06'0 0.0
2017-Jan-16 06:34N 66°30' E 012°06'0 0.0
2017-Jan-16 05:34N 66°30' E 012°06'0 0.0
2017-Jan-16 04:34N 66°30' E 012°06'0 0.0
2017-Jan-16 03:34N 66°30' E 012°06'0 0.0
2017-Jan-16 02:34N 66°30' E 012°06'0 0.0
2017-Jan-16 01:34N 66°30' E 012°06'7 7.1
2017-Jan-16 00:33N 66°34' E 012°21'35 8.4
2017-Jan-15 20:24N 66°57' E 013°29'8 8.7
2017-Jan-15 19:31N 67°02' E 013°45'9 9.1
2017-Jan-15 18:34N 67°08' E 014°01'9 9.0
2017-Jan-15 17:34N 67°15' E 014°15'4 3.8
2017-Jan-15 16:34N 67°17' E 014°23'0 0.0
2017-Jan-15 15:34N 67°17' E 014°23'0 0.0
2017-Jan-15 14:34N 67°17' E 014°23'0 0.0
2017-Jan-15 13:34N 67°17' E 014°23'0 0.0
2017-Jan-15 12:34N 67°17' E 014°23'0 0.0
2017-Jan-15 11:34N 67°17' E 014°23'0 0.0
2017-Jan-15 10:34N 67°17' E 014°23'0 0.0
2017-Jan-15 09:34N 67°17' E 014°23'0 0.0
2017-Jan-15 08:34N 67°17' E 014°23'0 0.0
2017-Jan-15 07:34N 67°17' E 014°23'0 0.0
2017-Jan-15 06:33N 67°17' E 014°23'0 0.0
2017-Jan-15 05:34N 67°17' E 014°23'0 0.0
2017-Jan-15 04:34N 67°17' E 014°23'0 0.0
2017-Jan-15 03:34N 67°17' E 014°23'0 0.0
2017-Jan-15 02:34N 67°17' E 014°23'0 0.0
2017-Jan-15 01:34N 67°17' E 014°23'0 0.0
2017-Jan-15 00:34N 67°17' E 014°23'0 0.0
2017-Jan-14 23:34N 67°17' E 014°23'0 0.0
2017-Jan-14 22:34N 67°17' E 014°23'0 0.0
2017-Jan-14 21:34N 67°17' E 014°23'0 0.0
2017-Jan-14 20:34N 67°17' E 014°23'0 0.0
2017-Jan-14 19:34N 67°17' E 014°23'0 0.0
2017-Jan-14 18:33N 67°17' E 014°23'0 0.0
2017-Jan-14 17:34N 67°17' E 014°23'0 0.0
2017-Jan-14 16:33N 67°17' E 014°23'0 0.0
2017-Jan-14 15:34N 67°17' E 014°23'1 0.8
2017-Jan-14 14:34N 67°18' E 014°23'4 4.3
2017-Jan-14 13:34N 67°22' E 014°23'5 5.1
2017-Jan-14 12:33N 67°27' E 014°28'108 8.1
2017-Jan-13 23:12N 68°57' E 017°09'9 8.7
2017-Jan-13 22:08N 69°05' E 017°23'5 8.7
2017-Jan-13 21:34N 69°07' E 017°36'9 8.9
2017-Jan-13 20:34N 69°11' E 017°59'8 7.9
2017-Jan-13 19:32N 69°19' E 017°59'  
2017-Jan-09 07:33N 69°16' E 017°58'7 7.3
2017-Jan-09 06:33N 69°09' E 017°52'127 8.5
2017-Jan-08 15:30N 67°27' E 014°27'8 8.8
2017-Jan-08 14:33N 67°19' E 014°23'6 6.2
2017-Jan-08 13:34N 67°14' E 014°13'11 9.5
2017-Jan-08 12:22N 67°05' E 013°55'11 9.5
2017-Jan-08 11:10N 66°58' E 013°32'18 9.5
2017-Jan-08 09:17N 66°42' E 013°10'10 9.9
2017-Jan-08 08:16N 66°33' E 013°01'7 9.7
2017-Jan-08 07:32N 66°26' E 012°59'78 9.6
2017-Jan-07 23:22N 65°12' E 011°53'7 9.3
2017-Jan-07 22:34N 65°06' E 011°47'9 9.1
2017-Jan-07 21:34N 64°58' E 011°34'10 9.5
2017-Jan-07 20:34N 64°52' E 011°17'  
Track history (hours):
 
Tides and Currents Weather Stations Pressure Air Temp Water Temp Dewpoint Dewpoint Depression Visibility Wind Speed Wind Dir Waves Ship Positions

Stottfjord

Last reported at 2017-Jan-17 20:31 UTC. Time now 2017-Jan-17 23:34 UTC.
Position N 66°38' E 012°34'.

Length 28 m; draft 5.3 m.

Type: Fishing. MMSI: 257580600.

Date/timePositionNaut miles runAvg speedWind from/ knotsBaromVisibWave heightAir tempDewpointWater temp
2017-Jan-17 20:31N 66°38' E 012°34'8 8.7
2017-Jan-17 19:34N 66°34' E 012°15'5 5.1
2017-Jan-17 18:34N 66°30' E 012°06'0 0.0
2017-Jan-17 17:34N 66°30' E 012°06'0 0.0
2017-Jan-17 16:34N 66°30' E 012°06'0 0.0
2017-Jan-17 15:33N 66°30' E 012°06'0 0.0
2017-Jan-17 14:34N 66°30' E 012°06'0 0.0
2017-Jan-17 13:34N 66°30' E 012°06'0 0.0
2017-Jan-17 12:34N 66°30' E 012°06'0 0.0
2017-Jan-17 11:34N 66°30' E 012°06'0 0.0
2017-Jan-17 10:34N 66°30' E 012°06'0 0.0
2017-Jan-17 09:34N 66°30' E 012°06'0 0.0
2017-Jan-17 08:34N 66°30' E 012°06'0 0.0
2017-Jan-17 07:33N 66°30' E 012°06'0 0.0
2017-Jan-17 06:34N 66°30' E 012°06'0 0.0
2017-Jan-17 05:34N 66°30' E 012°06'0 0.0
2017-Jan-17 04:34N 66°30' E 012°06'0 0.0
2017-Jan-17 03:34N 66°30' E 012°06'0 0.0
2017-Jan-17 02:34N 66°30' E 012°06'0 0.0
2017-Jan-17 01:34N 66°30' E 012°06'0 0.0
2017-Jan-17 00:34N 66°30' E 012°06'0 0.0
2017-Jan-16 23:34N 66°30' E 012°06'0 0.0
2017-Jan-16 22:34N 66°30' E 012°06'0 0.0
2017-Jan-16 21:33N 66°30' E 012°06'0 0.0
2017-Jan-16 20:34N 66°30' E 012°06'0 0.0
2017-Jan-16 19:34N 66°30' E 012°06'0 0.0
2017-Jan-16 18:34N 66°30' E 012°06'0 0.0
2017-Jan-16 17:34N 66°30' E 012°06'0 0.0
2017-Jan-16 16:34N 66°30' E 012°06'0 0.0
2017-Jan-16 15:34N 66°30' E 012°06'0 0.0
2017-Jan-16 14:34N 66°30' E 012°06'0 0.0
2017-Jan-16 13:34N 66°30' E 012°06'0 0.0
2017-Jan-16 12:34N 66°30' E 012°06'0 0.0
2017-Jan-16 11:34N 66°30' E 012°06'0 0.0
2017-Jan-16 10:33N 66°30' E 012°06'0 0.0
2017-Jan-16 09:34N 66°30' E 012°06'0 0.0
2017-Jan-16 08:34N 66°30' E 012°06'0 0.0
2017-Jan-16 07:34N 66°30' E 012°06'0 0.0
2017-Jan-16 06:34N 66°30' E 012°06'0 0.0
2017-Jan-16 05:34N 66°30' E 012°06'0 0.0
2017-Jan-16 04:34N 66°30' E 012°06'0 0.0
2017-Jan-16 03:34N 66°30' E 012°06'0 0.0
2017-Jan-16 02:34N 66°30' E 012°06'0 0.0
2017-Jan-16 01:34N 66°30' E 012°06'7 7.1
2017-Jan-16 00:33N 66°34' E 012°21'35 8.4
2017-Jan-15 20:24N 66°57' E 013°29'8 8.7
2017-Jan-15 19:31N 67°02' E 013°45'9 9.1
2017-Jan-15 18:34N 67°08' E 014°01'9 9.0
2017-Jan-15 17:34N 67°15' E 014°15'4 3.8
2017-Jan-15 16:34N 67°17' E 014°23'0 0.0
2017-Jan-15 15:34N 67°17' E 014°23'0 0.0
2017-Jan-15 14:34N 67°17' E 014°23'0 0.0
2017-Jan-15 13:34N 67°17' E 014°23'0 0.0
2017-Jan-15 12:34N 67°17' E 014°23'0 0.0
2017-Jan-15 11:34N 67°17' E 014°23'0 0.0
2017-Jan-15 10:34N 67°17' E 014°23'0 0.0
2017-Jan-15 09:34N 67°17' E 014°23'0 0.0
2017-Jan-15 08:34N 67°17' E 014°23'0 0.0
2017-Jan-15 07:34N 67°17' E 014°23'0 0.0
2017-Jan-15 06:33N 67°17' E 014°23'0 0.0
2017-Jan-15 05:34N 67°17' E 014°23'0 0.0
2017-Jan-15 04:34N 67°17' E 014°23'0 0.0
2017-Jan-15 03:34N 67°17' E 014°23'0 0.0
2017-Jan-15 02:34N 67°17' E 014°23'0 0.0
2017-Jan-15 01:34N 67°17' E 014°23'0 0.0
2017-Jan-15 00:34N 67°17' E 014°23'0 0.0
2017-Jan-14 23:34N 67°17' E 014°23'0 0.0
2017-Jan-14 22:34N 67°17' E 014°23'0 0.0
2017-Jan-14 21:34N 67°17' E 014°23'0 0.0
2017-Jan-14 20:34N 67°17' E 014°23'0 0.0
2017-Jan-14 19:34N 67°17' E 014°23'0 0.0
2017-Jan-14 18:33N 67°17' E 014°23'0 0.0
2017-Jan-14 17:34N 67°17' E 014°23'0 0.0
2017-Jan-14 16:33N 67°17' E 014°23'0 0.0
2017-Jan-14 15:34N 67°17' E 014°23'1 0.8
2017-Jan-14 14:34N 67°18' E 014°23'4 4.3
2017-Jan-14 13:34N 67°22' E 014°23'5 5.1
2017-Jan-14 12:33N 67°27' E 014°28'108 8.1
2017-Jan-13 23:12N 68°57' E 017°09'9 8.7
2017-Jan-13 22:08N 69°05' E 017°23'5 8.7
2017-Jan-13 21:34N 69°07' E 017°36'9 8.9
2017-Jan-13 20:34N 69°11' E 017°59'8 7.9
2017-Jan-13 19:32N 69°19' E 017°59'  
2017-Jan-09 07:33N 69°16' E 017°58'7 7.3
2017-Jan-09 06:33N 69°09' E 017°52'127 8.5
2017-Jan-08 15:30N 67°27' E 014°27'8 8.8
2017-Jan-08 14:33N 67°19' E 014°23'6 6.2
2017-Jan-08 13:34N 67°14' E 014°13'11 9.5
2017-Jan-08 12:22N 67°05' E 013°55'11 9.5
2017-Jan-08 11:10N 66°58' E 013°32'18 9.5
2017-Jan-08 09:17N 66°42' E 013°10'10 9.9
2017-Jan-08 08:16N 66°33' E 013°01'7 9.7
2017-Jan-08 07:32N 66°26' E 012°59'78 9.6
2017-Jan-07 23:22N 65°12' E 011°53'7 9.3
2017-Jan-07 22:34N 65°06' E 011°47'9 9.1
2017-Jan-07 21:34N 64°58' E 011°34'10 9.5
2017-Jan-07 20:34N 64°52' E 011°17'  

Dump ship's entire track history